createdAt,value
2023-04-27T00:01:58.295Z,100943.38
2023-04-27T00:04:25.667Z,100944.25
2023-04-27T00:06:52.917Z,100942.53
2023-04-27T00:09:19.788Z,100945.19
2023-04-27T00:11:46.724Z,100931.25
2023-04-27T00:14:13.657Z,100936.59
2023-04-27T00:16:40.869Z,100933.63
2023-04-27T00:19:09.201Z,100931.84
2023-04-27T00:21:36.386Z,100931.06
2023-04-27T00:24:03.286Z,100933.72
2023-04-27T00:26:30.220Z,100932.13
2023-04-27T00:28:58.664Z,100931.81
2023-04-27T00:31:25.856Z,100930.53
2023-04-27T00:33:53.010Z,100932.53
2023-04-27T00:36:19.893Z,100935.81
2023-04-27T00:38:49.568Z,100940.34
2023-04-27T00:41:16.561Z,100939.59
2023-04-27T00:43:45.097Z,100940.44
2023-04-27T00:46:15.455Z,100945.13
2023-04-27T00:48:43.150Z,100944.44
2023-04-27T00:51:10.659Z,100936.44
2023-04-27T00:53:38.295Z,100940.88
2023-04-27T00:56:05.949Z,100943.06
2023-04-27T00:58:33.251Z,100948.06
2023-04-27T01:01:00.768Z,100951.56
2023-04-27T01:03:28.081Z,100958.31
2023-04-27T01:05:56.980Z,100956.78
2023-04-27T01:08:23.862Z,100952.34
2023-04-27T01:10:51.008Z,100955.00
2023-04-27T01:13:17.929Z,100956.03
2023-04-27T01:15:44.817Z,100968.31
2023-04-27T01:18:11.851Z,100959.66
2023-04-27T01:20:39.093Z,100956.84
2023-04-27T01:23:06.548Z,100957.56
2023-04-27T01:25:33.534Z,100960.16
2023-04-27T01:28:02.553Z,100963.66
2023-04-27T01:30:30.539Z,100967.50
2023-04-27T01:32:59.223Z,100967.59
2023-04-27T01:35:28.205Z,100972.25
2023-04-27T01:38:00.285Z,100964.09
2023-04-27T01:40:27.219Z,100972.88
2023-04-27T01:42:54.516Z,100972.09
2023-04-27T01:45:21.744Z,100970.50
2023-04-27T01:47:51.396Z,100975.41
2023-04-27T01:50:20.535Z,100974.72
2023-04-27T01:52:47.783Z,100979.69
2023-04-27T01:55:14.870Z,100980.84
2023-04-27T01:57:42.424Z,100979.06
2023-04-27T02:00:09.870Z,100975.50
2023-04-27T02:02:51.534Z,100978.06
2023-04-27T02:05:18.558Z,100982.13
2023-04-27T02:07:46.449Z,100986.88
2023-04-27T02:10:13.681Z,100983.41
2023-04-27T02:12:40.912Z,100981.53
2023-04-27T02:15:09.528Z,100991.28
2023-04-27T02:17:36.417Z,100991.16
2023-04-27T02:20:03.404Z,100984.91
2023-04-27T02:22:30.284Z,100996.38
2023-04-27T02:24:57.894Z,100996.50
2023-04-27T02:27:25.884Z,100993.97
2023-04-27T02:29:53.376Z,101002.25
2023-04-27T02:32:20.677Z,101000.78
2023-04-27T02:34:47.668Z,100996.44
2023-04-27T02:37:14.537Z,101002.56
2023-04-27T02:39:41.483Z,100993.50
2023-04-27T02:42:08.319Z,101005.03
2023-04-27T02:44:35.794Z,101002.81
2023-04-27T02:47:02.921Z,101008.81
2023-04-27T02:49:29.804Z,100998.25
2023-04-27T02:51:57.000Z,101005.59
2023-04-27T02:54:23.844Z,101005.81
2023-04-27T02:56:50.754Z,100997.13
2023-04-27T02:59:17.645Z,101005.75
2023-04-27T03:01:44.562Z,101013.53
2023-04-27T03:04:14.327Z,101020.06
2023-04-27T03:06:41.830Z,101014.91
2023-04-27T03:09:10.465Z,101020.19
2023-04-27T03:11:37.605Z,101015.03
2023-04-27T03:14:05.166Z,101012.84
2023-04-27T03:16:35.771Z,101017.19
2023-04-27T03:19:02.775Z,101013.38
2023-04-27T03:21:32.086Z,101020.38
2023-04-27T03:23:58.975Z,101012.38
2023-04-27T03:26:26.718Z,101017.53
2023-04-27T03:28:53.628Z,101020.72
2023-04-27T03:31:20.514Z,101021.69
2023-04-27T03:33:47.516Z,101022.69
2023-04-27T03:36:15.735Z,101030.50
2023-04-27T03:38:42.652Z,101027.13
2023-04-27T03:41:09.816Z,101035.88
2023-04-27T03:43:37.302Z,101038.72
2023-04-27T03:46:04.381Z,101040.72
2023-04-27T03:48:32.070Z,101048.56
2023-04-27T03:51:01.072Z,101047.72
2023-04-27T03:53:28.491Z,101042.44
2023-04-27T03:55:57.571Z,101038.50
2023-04-27T03:58:25.227Z,101043.56
2023-04-27T04:01:10.396Z,101047.25
2023-04-27T04:03:38.164Z,101053.03
2023-04-27T04:06:08.293Z,101056.31
2023-04-27T04:08:35.475Z,101057.50
2023-04-27T04:11:03.917Z,101055.03
2023-04-27T04:13:30.979Z,101064.31
2023-04-27T04:16:08.593Z,101064.88
2023-04-27T04:18:39.544Z,101074.78
2023-04-27T04:21:06.712Z,101065.59
2023-04-27T04:23:33.580Z,101082.34
2023-04-27T04:26:03.447Z,101078.09
2023-04-27T04:28:34.289Z,101079.09
2023-04-27T04:31:01.677Z,101082.09
2023-04-27T04:33:28.656Z,101076.09
2023-04-27T04:35:56.276Z,101083.47
2023-04-27T04:38:24.200Z,101082.84
2023-04-27T04:40:53.296Z,101087.03
2023-04-27T04:43:20.508Z,101086.69
2023-04-27T04:45:48.477Z,101086.19
2023-04-27T04:48:16.771Z,101085.22
2023-04-27T04:50:45.444Z,101085.97
2023-04-27T04:53:13.205Z,101081.31
2023-04-27T04:55:40.241Z,101084.81
2023-04-27T04:58:08.872Z,101082.16
2023-04-27T05:00:36.252Z,101083.38
2023-04-27T05:03:03.605Z,101086.00
2023-04-27T05:05:30.665Z,101096.06
2023-04-27T05:07:57.944Z,101100.47
2023-04-27T05:10:25.016Z,101094.22
2023-04-27T05:12:55.033Z,101095.72
2023-04-27T05:15:22.046Z,101097.38
2023-04-27T05:17:48.942Z,101094.81
2023-04-27T05:20:16.142Z,101102.94
2023-04-27T05:22:43.067Z,101104.13
2023-04-27T05:25:10.266Z,101101.81
2023-04-27T05:27:37.149Z,101107.13
2023-04-27T05:30:04.432Z,101093.56
2023-04-27T05:32:31.888Z,101093.91
2023-04-27T05:35:01.508Z,101097.03
2023-04-27T05:37:28.636Z,101090.22
2023-04-27T05:39:55.851Z,101104.09
2023-04-27T05:42:22.686Z,101097.88
2023-04-27T05:44:49.525Z,101095.72
2023-04-27T05:47:16.770Z,101108.00
2023-04-27T05:49:46.737Z,101107.81
2023-04-27T05:52:19.410Z,101100.78
2023-04-27T05:54:50.289Z,101114.88
2023-04-27T05:57:17.470Z,101115.03
2023-04-27T05:59:47.052Z,101095.22
2023-04-27T06:02:16.963Z,101106.03
2023-04-27T06:04:44.595Z,101112.56
2023-04-27T06:07:12.717Z,101106.19
2023-04-27T06:09:43.179Z,101104.00
2023-04-27T06:12:10.615Z,101105.97
2023-04-27T06:14:38.600Z,101115.19
2023-04-27T06:17:06.277Z,101114.69
2023-04-27T06:19:33.400Z,101117.13
2023-04-27T06:22:00.730Z,101120.09
2023-04-27T06:24:28.995Z,101117.28
2023-04-27T06:26:55.947Z,101117.94
2023-04-27T06:29:22.774Z,101120.41
2023-04-27T06:31:49.706Z,101121.78
2023-04-27T06:34:16.837Z,101124.03
2023-04-27T06:36:43.733Z,101117.13
2023-04-27T06:39:10.732Z,101126.69
2023-04-27T06:41:37.712Z,101121.41
2023-04-27T06:44:04.639Z,101125.66
2023-04-27T06:46:31.543Z,101135.03
2023-04-27T06:48:58.396Z,101131.41
2023-04-27T06:51:25.315Z,101126.41
2023-04-27T06:53:53.029Z,101131.19
2023-04-27T06:56:19.968Z,101128.75
2023-04-27T06:58:46.935Z,101125.22
2023-04-27T07:01:13.996Z,101127.03
2023-04-27T07:03:41.513Z,101121.75
2023-04-27T07:06:09.036Z,101131.25
2023-04-27T07:08:37.200Z,101141.69
2023-04-27T07:11:08.688Z,101127.09
2023-04-27T07:13:35.955Z,101125.84
2023-04-27T07:16:04.477Z,101131.06
2023-04-27T07:18:31.755Z,101147.19
2023-04-27T07:20:59.323Z,101137.34
2023-04-27T07:23:26.543Z,101140.03
2023-04-27T07:25:54.700Z,101139.06
2023-04-27T07:28:21.817Z,101134.09
2023-04-27T07:30:49.023Z,101138.88
2023-04-27T07:33:16.306Z,101141.50
2023-04-27T07:35:43.552Z,101137.69
2023-04-27T07:38:10.637Z,101135.72
2023-04-27T07:40:37.793Z,101134.75
2023-04-27T07:43:05.961Z,101147.28
2023-04-27T07:45:33.404Z,101140.94
2023-04-27T07:48:01.082Z,101154.16
2023-04-27T07:50:30.582Z,101155.72
2023-04-27T07:52:58.305Z,101160.03
2023-04-27T07:55:26.245Z,101147.00
2023-04-27T07:57:54.237Z,101148.53
2023-04-27T08:00:22.731Z,101149.34
2023-04-27T08:02:51.216Z,101145.06
2023-04-27T08:05:19.050Z,101170.94
2023-04-27T08:07:49.220Z,101158.22
2023-04-27T08:10:16.792Z,101155.66
2023-04-27T08:12:43.788Z,101153.53
2023-04-27T08:15:11.704Z,101154.72
2023-04-27T08:17:41.709Z,101156.81
2023-04-27T08:20:13.163Z,101145.81
2023-04-27T08:22:41.126Z,101141.88
2023-04-27T08:25:09.103Z,101141.69
2023-04-27T08:27:40.560Z,101157.63
2023-04-27T08:30:08.968Z,101155.09
2023-04-27T08:32:38.866Z,101149.44
2023-04-27T08:35:06.699Z,101154.91
2023-04-27T08:37:33.936Z,101144.78
2023-04-27T08:40:01.184Z,101149.22
2023-04-27T08:42:31.053Z,101137.38
2023-04-27T08:45:02.414Z,101151.91
2023-04-27T08:47:42.652Z,101156.16
2023-04-27T08:50:12.424Z,101159.91
2023-04-27T08:52:39.647Z,101159.88
2023-04-27T08:55:08.911Z,101153.59
2023-04-27T08:57:36.311Z,101140.63
2023-04-27T09:00:18.161Z,101166.25
2023-04-27T09:02:49.439Z,101140.34
2023-04-27T09:05:21.504Z,101143.09
2023-04-27T09:08:05.366Z,101139.78
2023-04-27T09:10:47.328Z,101134.69
2023-04-27T09:13:14.477Z,101143.56
2023-04-27T09:15:49.728Z,101145.13
2023-04-27T09:18:19.442Z,101140.34
2023-04-27T09:20:47.970Z,101141.25
2023-04-27T09:23:33.364Z,101148.50
2023-04-27T09:26:03.785Z,101148.59
2023-04-27T09:28:32.684Z,101152.41
2023-04-27T09:31:00.968Z,101146.06
2023-04-27T09:33:33.067Z,101140.69
2023-04-27T09:36:01.513Z,101148.03
2023-04-27T09:38:30.222Z,101141.38
2023-04-27T09:41:00.235Z,101143.69
2023-04-27T09:43:29.032Z,101140.34
2023-04-27T09:45:59.216Z,101134.06
2023-04-27T09:48:27.444Z,101125.69
2023-04-27T09:50:55.907Z,101138.44
2023-04-27T09:53:31.097Z,101127.47
2023-04-27T09:56:07.696Z,101129.00
2023-04-27T09:58:46.629Z,101140.31
2023-04-27T10:01:33.258Z,101123.16
2023-04-27T10:04:40.911Z,101144.44
2023-04-27T10:07:13.338Z,101118.38
2023-04-27T10:09:43.005Z,101127.66
2023-04-27T10:12:20.474Z,101115.47
2023-04-27T10:14:54.489Z,101114.22
2023-04-27T10:17:32.920Z,101114.22
2023-04-27T10:20:02.145Z,101108.63
2023-04-27T10:22:46.885Z,101115.94
2023-04-27T10:25:16.835Z,101116.91
2023-04-27T10:27:46.590Z,101133.97
2023-04-27T10:30:14.290Z,101115.63
2023-04-27T10:32:51.720Z,101113.88
2023-04-27T10:35:20.419Z,101112.19
2023-04-27T10:37:48.022Z,101120.31
2023-04-27T10:40:17.834Z,101113.31
2023-04-27T10:42:49.801Z,101116.66
2023-04-27T10:45:31.210Z,101114.97
2023-04-27T10:48:00.582Z,101124.66
2023-04-27T10:50:28.209Z,101114.03
2023-04-27T10:52:55.257Z,101116.44
2023-04-27T10:55:23.364Z,101135.47
2023-04-27T10:57:52.157Z,101106.00
2023-04-27T11:00:27.132Z,101113.31
2023-04-27T11:02:55.686Z,101136.47
2023-04-27T11:05:26.017Z,101119.44
2023-04-27T11:08:04.436Z,101123.47
2023-04-27T11:10:31.600Z,101126.06
2023-04-27T11:12:59.480Z,101119.56
2023-04-27T11:15:26.603Z,101119.34
2023-04-27T11:18:05.044Z,101134.16
2023-04-27T11:20:34.187Z,101120.72
2023-04-27T11:23:01.626Z,101125.66
2023-04-27T11:25:30.233Z,101141.41
2023-04-27T11:27:59.970Z,101128.53
2023-04-27T11:30:29.986Z,101145.63
2023-04-27T11:32:58.470Z,101132.66
2023-04-27T11:35:34.756Z,101137.91
2023-04-27T11:38:01.947Z,101138.66
2023-04-27T11:40:29.495Z,101145.53
2023-04-27T11:43:00.056Z,101146.53
2023-04-27T11:45:30.484Z,101157.88
2023-04-27T11:48:01.320Z,101151.91
2023-04-27T11:50:28.947Z,101158.75
2023-04-27T11:53:01.194Z,101149.44
2023-04-27T11:55:28.220Z,101159.78
2023-04-27T11:57:59.409Z,101163.09
2023-04-27T12:00:26.568Z,101134.78
2023-04-27T12:02:53.896Z,101160.53
2023-04-27T12:05:22.028Z,101154.84
2023-04-27T12:07:51.301Z,101155.09
2023-04-27T12:10:20.736Z,101147.66
2023-04-27T12:12:47.823Z,101162.03
2023-04-27T12:15:14.908Z,101155.28
2023-04-27T12:17:46.133Z,101152.75
2023-04-27T12:20:16.321Z,101159.44
2023-04-27T12:22:44.757Z,101162.19
2023-04-27T12:25:33.806Z,101156.84
2023-04-27T12:31:33.939Z,101167.78
2023-04-27T12:34:04.347Z,101159.00
2023-04-27T12:36:32.558Z,101163.31
2023-04-27T12:39:17.666Z,101162.06
2023-04-27T12:41:52.552Z,101156.72
2023-04-27T12:44:57.489Z,101157.06
2023-04-27T12:47:58.151Z,101175.22
2023-04-27T12:50:33.819Z,101183.25
2023-04-27T12:53:02.648Z,101170.91
2023-04-27T12:55:49.206Z,101177.66
2023-04-27T12:58:40.109Z,101160.28
2023-04-27T13:01:57.971Z,101167.63
2023-04-27T13:04:34.843Z,101164.44
2023-04-27T13:16:41.442Z,101144.53
2023-04-27T13:19:25.972Z,101133.00
2023-04-27T13:25:01.458Z,101138.91
2023-04-27T13:27:38.346Z,101151.44
2023-04-27T13:30:32.289Z,101150.97
2023-04-27T13:33:22.729Z,101144.88
2023-04-27T13:36:09.296Z,101156.50
2023-04-27T13:41:39.412Z,101153.56
2023-04-27T13:44:14.968Z,101138.66
2023-04-27T13:46:44.716Z,101137.06
2023-04-27T13:49:16.433Z,101150.19
2023-04-27T13:51:43.600Z,101144.72
2023-04-27T13:54:10.667Z,101149.47
2023-04-27T13:56:38.433Z,101146.97
2023-04-27T13:59:05.795Z,101143.97
2023-04-27T14:01:34.034Z,101139.56
2023-04-27T14:04:02.562Z,101130.75
2023-04-27T14:06:35.082Z,101151.19
2023-04-27T14:09:04.635Z,101141.31
2023-04-27T14:11:42.325Z,101151.59
2023-04-27T14:14:27.081Z,101161.00
2023-04-27T14:16:54.414Z,101139.91
2023-04-27T14:19:22.244Z,101134.97
2023-04-27T14:21:58.005Z,101144.69
2023-04-27T14:24:29.317Z,101138.88
2023-04-27T14:26:57.009Z,101145.41
2023-04-27T14:29:26.204Z,101133.28
2023-04-27T14:31:59.440Z,101136.81
2023-04-27T14:34:27.210Z,101136.78
2023-04-27T14:36:56.903Z,101131.78
2023-04-27T14:39:23.948Z,101135.19
2023-04-27T14:41:54.108Z,101140.69
2023-04-27T14:44:21.568Z,101152.66
2023-04-27T14:46:56.240Z,101162.06
2023-04-27T14:49:23.333Z,101152.44
2023-04-27T14:51:53.545Z,101139.09
2023-04-27T14:54:21.448Z,101147.44
2023-04-27T14:56:48.412Z,101166.78
2023-04-27T14:59:15.689Z,101147.97
2023-04-27T15:01:45.521Z,101144.97
2023-04-27T15:04:12.839Z,101148.91
2023-04-27T15:06:40.029Z,101131.59
2023-04-27T15:09:48.348Z,101126.41
2023-04-27T15:12:15.592Z,101136.84
2023-04-27T15:19:01.496Z,101132.25
2023-04-27T15:29:18.240Z,101138.41
2023-04-27T15:31:47.927Z,101160.41
2023-04-27T15:34:16.354Z,101149.47
2023-04-27T15:36:44.265Z,101150.97
2023-04-27T15:39:16.397Z,101156.50
2023-04-27T15:41:45.217Z,101145.63
2023-04-27T15:44:14.536Z,101153.84
2023-04-27T15:46:42.196Z,101145.84
2023-04-27T15:49:09.397Z,101141.19
2023-04-27T15:51:36.424Z,101134.13
2023-04-27T15:54:03.911Z,101136.53
2023-04-27T15:56:31.247Z,101129.50
2023-04-27T15:58:58.629Z,101124.78
2023-04-27T16:01:26.309Z,101124.78
2023-04-27T16:03:53.377Z,101131.22
2023-04-27T16:06:20.284Z,101117.31
2023-04-27T16:08:47.159Z,101118.63
2023-04-27T16:11:14.445Z,101120.56
2023-04-27T16:13:41.609Z,101120.44
2023-04-27T16:16:08.803Z,101124.34
2023-04-27T16:18:36.475Z,101122.50
2023-04-27T16:21:04.058Z,101116.59
2023-04-27T16:23:31.211Z,101119.88
2023-04-27T16:25:58.075Z,101106.38
2023-04-27T16:28:25.154Z,101111.88
2023-04-27T16:30:53.078Z,101107.22
2023-04-27T16:33:21.724Z,101106.63
2023-04-27T16:35:49.035Z,101102.78
2023-04-27T16:38:16.054Z,101098.22
2023-04-27T16:40:43.934Z,101104.84
2023-04-27T16:43:10.989Z,101103.06
2023-04-27T16:45:39.009Z,101104.47
2023-04-27T16:48:06.620Z,101098.88
2023-04-27T16:50:33.736Z,101096.94
2023-04-27T16:53:06.165Z,101100.75
2023-04-27T16:55:34.022Z,101102.84
2023-04-27T16:58:01.101Z,101108.34
2023-04-27T17:00:28.675Z,101106.25
2023-04-27T17:02:55.650Z,101112.53
2023-04-27T17:05:22.691Z,101103.91
2023-04-27T17:07:49.599Z,101104.00
2023-04-27T17:10:17.094Z,101103.78
2023-04-27T17:12:43.992Z,101102.06
2023-04-27T17:15:12.297Z,101097.50
2023-04-27T17:17:39.523Z,101098.25
2023-04-27T17:20:07.910Z,101098.53
2023-04-27T17:22:35.046Z,101107.75
2023-04-27T17:25:02.207Z,101096.56
2023-04-27T17:27:29.409Z,101100.31
2023-04-27T17:30:08.228Z,101099.38
2023-04-27T17:32:35.311Z,101095.81
2023-04-27T17:35:02.357Z,101100.09
2023-04-27T17:37:29.623Z,101101.38
2023-04-27T17:39:57.930Z,101096.91
2023-04-27T17:42:24.890Z,101106.94
2023-04-27T17:44:51.992Z,101109.81
2023-04-27T17:47:20.769Z,101107.25
2023-04-27T17:49:47.698Z,101102.25
2023-04-27T17:52:14.636Z,101101.28
2023-04-27T17:54:41.963Z,101104.38
2023-04-27T17:57:09.658Z,101104.97
2023-04-27T17:59:37.135Z,101100.41
2023-04-27T18:02:04.201Z,101106.06
2023-04-27T18:04:32.028Z,101100.41
2023-04-27T18:06:58.952Z,101112.00
2023-04-27T18:09:27.277Z,101113.72
2023-04-27T18:11:54.135Z,101117.31
2023-04-27T18:14:21.091Z,101121.22
2023-04-27T18:16:48.075Z,101125.22
2023-04-27T18:19:15.250Z,101127.94
2023-04-27T18:21:42.480Z,101130.44
2023-04-27T18:24:09.916Z,101131.06
2023-04-27T18:26:37.160Z,101138.47
2023-04-27T18:29:04.228Z,101137.03
2023-04-27T18:31:31.407Z,101144.69
2023-04-27T18:33:59.379Z,101144.84
2023-04-27T18:36:27.885Z,101146.56
2023-04-27T18:38:55.485Z,101143.06
2023-04-27T18:41:23.402Z,101158.31
2023-04-27T18:43:50.554Z,101158.81
2023-04-27T18:46:17.601Z,101158.31
2023-04-27T18:48:44.507Z,101165.06
2023-04-27T18:51:11.716Z,101163.63
2023-04-27T18:53:38.598Z,101162.78
2023-04-27T18:56:07.072Z,101166.50
2023-04-27T18:58:35.154Z,101167.56
2023-04-27T19:01:02.119Z,101171.16
2023-04-27T19:03:29.133Z,101169.59
2023-04-27T19:05:56.299Z,101167.44
2023-04-27T19:08:23.136Z,101167.66
2023-04-27T19:10:51.327Z,101161.66
2023-04-27T19:13:18.305Z,101160.91
2023-04-27T19:15:45.184Z,101160.19
2023-04-27T19:18:12.161Z,101171.91
2023-04-27T19:20:40.232Z,101169.53
2023-04-27T19:23:09.724Z,101169.53
2023-04-27T19:25:36.814Z,101165.22
2023-04-27T19:28:04.542Z,101168.19
2023-04-27T19:30:31.635Z,101163.09
2023-04-27T19:32:58.673Z,101160.94
2023-04-27T19:35:26.736Z,101163.75
2023-04-27T19:37:53.658Z,101168.31
2023-04-27T19:40:20.640Z,101174.50
2023-04-27T19:42:48.009Z,101164.72
2023-04-27T19:45:16.108Z,101165.38
2023-04-27T19:47:43.395Z,101170.81
2023-04-27T19:50:11.157Z,101166.13
2023-04-27T19:52:38.076Z,101167.22
2023-04-27T19:55:05.418Z,101171.84
2023-04-27T19:57:32.334Z,101175.50
2023-04-27T19:59:59.326Z,101170.44
2023-04-27T20:02:26.555Z,101179.94
2023-04-27T20:04:53.750Z,101173.00
2023-04-27T20:07:21.035Z,101173.25
2023-04-27T20:09:47.902Z,101166.66
2023-04-27T20:12:34.951Z,101165.13
2023-04-27T20:15:01.773Z,101161.75
2023-04-27T20:17:29.158Z,101160.44
2023-04-27T20:19:56.632Z,101157.78
2023-04-27T20:22:24.026Z,101157.13
2023-04-27T20:24:51.081Z,101161.81
2023-04-27T20:27:18.146Z,101159.28
2023-04-27T20:29:46.850Z,101163.00
2023-04-27T20:32:13.743Z,101163.16
2023-04-27T20:34:40.673Z,101161.69
2023-04-27T20:37:07.817Z,101157.47
2023-04-27T20:39:35.269Z,101163.78
2023-04-27T20:42:02.171Z,101160.59
2023-04-27T20:44:29.142Z,101157.03
2023-04-27T20:46:56.056Z,101155.38
2023-04-27T20:49:31.998Z,101160.00
2023-04-27T20:52:02.157Z,101153.09
2023-04-27T20:54:32.961Z,101165.56
2023-04-27T20:57:03.908Z,101167.34
2023-04-27T20:59:30.848Z,101160.69
2023-04-27T21:01:57.831Z,101156.03
2023-04-27T21:04:26.015Z,101160.63
2023-04-27T21:06:56.123Z,101154.38
2023-04-27T21:09:23.144Z,101150.28
2023-04-27T21:11:50.168Z,101149.38
2023-04-27T21:14:17.316Z,101152.09
2023-04-27T21:16:44.561Z,101150.28
2023-04-27T21:19:14.996Z,101150.44
2023-04-27T21:21:42.212Z,101146.84
2023-04-27T21:24:09.283Z,101140.72
2023-04-27T21:26:36.536Z,101142.50
2023-04-27T21:29:06.034Z,101140.41
2023-04-27T21:31:33.782Z,101144.00
2023-04-27T21:34:01.605Z,101142.34
2023-04-27T21:36:28.576Z,101139.03
2023-04-27T21:38:55.525Z,101145.81
2023-04-27T21:41:22.418Z,101147.06
2023-04-27T21:43:49.381Z,101143.09
2023-04-27T21:46:16.646Z,101141.91
2023-04-27T21:48:43.533Z,101148.47
2023-04-27T21:51:10.586Z,101145.81
2023-04-27T21:53:37.498Z,101143.34
2023-04-27T21:56:04.544Z,101145.34
2023-04-27T21:58:31.411Z,101144.56
2023-04-27T22:00:58.644Z,101152.66
2023-04-27T22:03:25.610Z,101145.59
2023-04-27T22:05:52.991Z,101146.31
2023-04-27T22:08:20.158Z,101149.69
2023-04-27T22:10:47.378Z,101147.97
2023-04-27T22:15:44.150Z,101142.09
2023-04-27T22:18:11.167Z,101146.63
2023-04-27T22:20:38.994Z,101147.63
2023-04-27T22:23:06.255Z,101153.66
2023-04-27T22:25:33.972Z,101147.63
2023-04-27T22:28:01.867Z,101150.56
2023-04-27T22:30:29.272Z,101146.34
2023-04-27T22:32:56.650Z,101137.41
2023-04-27T22:35:27.121Z,101145.28
2023-04-27T22:37:56.019Z,101144.69
2023-04-27T22:40:23.303Z,101150.97
2023-04-27T22:42:50.341Z,101156.72
2023-04-27T22:45:17.440Z,101153.28
2023-04-27T22:47:44.796Z,101155.31
2023-04-27T22:50:12.572Z,101147.63
2023-04-27T22:52:42.521Z,101156.34
2023-04-27T22:55:10.456Z,101159.31
2023-04-27T22:57:38.272Z,101148.91
2023-04-27T23:00:06.139Z,101147.06
2023-04-27T23:02:33.100Z,101144.44
2023-04-27T23:05:00.366Z,101140.91
2023-04-27T23:07:27.237Z,101140.91
2023-04-27T23:09:55.059Z,101139.56
2023-04-27T23:12:22.355Z,101133.53
2023-04-27T23:14:49.272Z,101132.78
2023-04-27T23:17:16.446Z,101130.00
2023-04-27T23:19:43.254Z,101125.44
2023-04-27T23:22:10.101Z,101127.34
2023-04-27T23:24:37.465Z,101117.75
2023-04-27T23:27:04.347Z,101128.31
2023-04-27T23:29:31.372Z,101127.28
2023-04-27T23:32:04.033Z,101122.44
2023-04-27T23:34:33.484Z,101127.09
2023-04-27T23:37:00.531Z,101131.47
2023-04-27T23:39:28.040Z,101123.50
2023-04-27T23:41:55.027Z,101115.59
2023-04-27T23:44:22.410Z,101117.44
2023-04-27T23:46:49.370Z,101112.22
2023-04-27T23:49:16.319Z,101109.75
2023-04-27T23:51:43.258Z,101105.44
2023-04-27T23:54:10.570Z,101107.16
2023-04-27T23:56:37.432Z,101102.09
2023-04-27T23:59:04.334Z,101103.22
